AirNav   Pilot Hours Calculator
 
 1518 users online  

KVVS Joseph A Hardy Connellsville Airport
Connellsville, Pennsylvania, USA

GOING TO CONNELLSVILLE?


FAA INFORMATION EFFECTIVE 27 FEBRUARY 2020

Location

FAA Identifier: VVS
Lat/Long: 39-57-32.6000N 079-39-26.7000W
39-57.543333N 079-39.445000W
39.9590556,-79.6574167
(estimated)
Elevation: 1264.4 ft. / 385.4 m (surveyed)
Variation: 08W (1990)
From city: 5 miles SW of CONNELLSVILLE, PA
Time zone: UTC -5 (UTC -4 during Daylight Saving Time)
Zip code: 15431

Airport Operations

Airport use: Open to the public
Activation date: 04/1940
Control tower: no
ARTCC: CLEVELAND CENTER
FSS: ALTOONA FLIGHT SERVICE STATION
NOTAMs facility: AOO (NOTAM-D service available)
Attendance: 0800 - 1700
Wind indicator: lighted
Segmented circle: yes
Lights: ACTVT REIL RWY 05; MIRL RWY 05/23 & 14/32 - CTAF.
Beacon: white-green (lighted land airport)
Operates sunset to sunrise.
Landing fee: yes, LDG FEE FOR ALL ACFT OVER 6000 LBS GWT; WAIVED FOR FUEL PURCHASE.

Airport Communications

CTAF/UNICOM: 122.8
WX AWOS-3: 133.325 (724-626-8745)
CLARKSBURG APPROACH: 119.425
CLARKSBURG DEPARTURE: 119.425
WX AWOS-3 at FWQ (17 nm NW): 118.475 (724-379-5815)
  • APCH/DEP SVC PRVDD BY CLEVELAND ARTCC (ZOB) ON FREQS 124.4/327.1 (ALTOONA RCAG) WHEN CLARKSBURG APCH CTL CLSD.

Nearby radio navigation aids

VOR radial/distance  VOR name  Freq  Var
IHDr272/13.8INDIAN HEAD VORTAC108.2006W
MGWr026/25.9MORGANTOWN VOR/DME111.6005W
AGCr146/26.0ALLEGHENY VOR/DME110.0009W

 
NDB name  Hdg/Dist  Freq  Var  ID
CAMOR049/6.129908WVV ...- ...-
STOYSTOWN267/34.920910WSYS ... -.-- ...

Airport Services

Fuel available: 100LL JET-A
Parking: hangars and tiedowns
Airframe service: MAJOR
Powerplant service: MAJOR

Runway Information

Runway 5/23

Dimensions: 3833 x 100 ft. / 1168 x 30 m
Surface: asphalt, in fair condition
Weight bearing capacity: 
Single wheel: 12.5
Runway edge lights: medium intensity
Operational restrictions: MARKINGS FADED.
RUNWAY 5  RUNWAY 23
Latitude: 39-57.405628N39-57.884745N
Longitude: 079-39.739762W079-39.205640W
Elevation: 1219.6 ft.1264.4 ft.
Traffic pattern: leftleft
Runway heading: 049 magnetic, 041 true229 magnetic, 221 true
Markings: nonprecision, in good conditionbasic, in good condition
Visual slope indicator: 2-light PAPI on left (3.00 degrees glide path)2-light PAPI on right (3.00 degrees glide path)
Runway end identifier lights: yes
Touchdown point: yes, no lightsyes, no lights
Instrument approach: LOCALIZER
Obstructions: none
RWY 05 9 FT TREES 137 FT FM RWY END 117 FT RT
26 ft. trees, 289 ft. from runway, 239 ft. right of centerline, 3:1 slope to clear
RWY 23 25 FT TREES 46 FT FM RWY END 226 FT RT; 27 FT TREES 83 FT FM RWY END 222 FT RT; 27 FT TREES 159 FT FM RWY END 222 FT RT.

Runway 14/32

Dimensions: 2404 x 100 ft. / 733 x 30 m
Surface: asphalt, in fair condition
Weight bearing capacity: 
Single wheel: 12.5
Runway edge lights: medium intensity
THLD & EDGE LGT OTS INDEF. MARKINGS FADED.
Runway edge markings: RWY 32 MARKINGS FADED.
RUNWAY 14  RUNWAY 32
Latitude: 39-57.508242N39-57.250210N
Longitude: 079-39.597182W079-39.207013W
Elevation: 1227.5 ft.1236.4 ft.
Traffic pattern: leftleft
Runway heading: 139 magnetic, 131 true319 magnetic, 311 true
Markings: basic, in poor conditionbasic, in poor condition
Visual slope indicator: 2-light PAPI on left (3.00 degrees glide path)
PAPI OTS INDEF.
Touchdown point: yes, no lightsyes, no lights
Obstructions: 15 ft. trees, 331 ft. from runway, 126 ft. right of centerline, 9:1 slope to clear14 ft. trees, 429 ft. from runway, 17 ft. right of centerline, 16:1 slope to clear

Airport Ownership and Management from official FAA records

Ownership: Publicly-owned
Owner: FAYETTE COUNTY AIRPORT AUTHORITY
988 SKY DRIVE
LEMONT FURNACE, PA 15456
Phone 724-628-2276
Manager: JOHN NECKERAUER
988 SKY DRIVE
LEMONT FURNACE, PA 15456
Phone 724-628-2276
AFT HRS 412-916-6282.

Airport Operational Statistics

Aircraft based on the field: 29
Single engine airplanes: 23
Multi engine airplanes: 2
Ultralights: 4
    
Aircraft operations: avg 84/day *
48% local general aviation
38% transient general aviation
15% air taxi
<1% military
* for 12-month period ending 19 November 2019

Additional Remarks

RWY 23 HAS A 265 FT RELOCATED THLD FOR TAXI ONLY. RWY 14 HAS A 315 FT RELOCATED THLD FOR TAXI ONLY, RWY 32 HAS A 260 FT RELOCATED THLD FOR TAXI ONLY.
DEER & BIRDS ON & INVOF ARPT.
TWY B CLSD TO ACFT WITH WINGSPAN MORE THAN 40 FT.
FOR APCH/DEP CTC CLEVELAND ARTCC AT 440-774-0226 WHEN CLARKSBURG APCH CTL CLSD.
FOR CD CTC CLARKSBURG APCH AT 304-842-2011, WHEN APCH CLSD CTC CLEVELAND ARTCC AT 440-774-0490.

Instrument Procedures

NOTE: All procedures below are presented as PDF files. If you need a reader for these files, you should download the free Adobe Reader.

NOT FOR NAVIGATION. Please procure official charts for flight.
FAA instrument procedures published for use from 27 February 2020 at 0901Z to 26 March 2020 at 0900Z.

 
IAPs - Instrument Approach Procedures
RNAV (GPS) RWY 05   download (249KB)
LOC RWY 05   download (222KB)
NOTE: Special Take-Off Minimums/Departure Procedures apply   download (208KB)

Other nearby airports with instrument procedures:

KFWQ - Rostraver Airport (17 nm NW)
KLBE - Arnold Palmer Regional Airport (22 nm NE)
KWAY - Greene County Airport (22 nm W)
KMGW - Morgantown Municipal Airport-Walter L. Bill Hart Field (22 nm SW)
G05 - Finleyville Airpark (24 nm NW)
 
Loc | Ops | Rwys | IFR | FBO | Links
Com | Nav | Svcs | Stats | Notes
Area around KVVS (Joseph A Hardy Connellsville Airport)
 
Road maps at: MapQuest Bing Google
 
Aerial photo
WARNING: Photo may not be current or correct
Aerial photo of KVVS (Joseph A Hardy Connellsville Airport)
Photo by John Diehl
Photo taken 23-Sep-2007

Do you have a better or more recent aerial photo of Joseph A Hardy Connellsville Airport that you would like to share? If so, please send us your photo.

 
Sectional chart

 
Airport distance calculator
Flying to Joseph A Hardy Connellsville Airport? Find the distance to fly.

From to KVVS

Sunrise and sunset
Times for 27-Feb-2020
 Local
(UTC-5)
 Zulu
(UTC)
Morning civil twilight06:2911:29
Sunrise06:5611:56
Sunset18:0723:07
Evening civil twilight18:3423:34

Current date and time
Zulu (UTC)  27-Feb-2020 21:27:46
Local (UTC-5)  27-Feb-2020 16:27:46
 
METAR
KP53 
17nm NW 
272056Z AUTO 33017G29KT M07/M11 A2990 RMK AO1 PK WND 35030/2041 SLP136 P0001 60002 T10721111 53001
KLBE 
22nm NE 
272050Z 24015G25KT 2SM -SN SCT005 BKN038 M04/M07 A2987
KMGW 
22nm SW 
272053Z 23012G22KT 200V260 10SM SCT037 OVC048 M03/M09 A2993 RMK AO2 SLP150 60000 T10281094 53010
KAGC 
26nm NW 
272113Z 26019G27KT 3SM -SN FEW030 OVC039 M04/M09 A2987 RMK AO2 PK WND 26035/2056 SNB2059 P0000 T10391089
K2G4 
27nm SE 
272120Z AUTO 26012G27KT 232V292 7SM SCT007 BKN021 BKN032 M08/M11 A2976 RMK AO1
KAFJ 
30nm W 
272116Z AUTO 26011G23KT 10SM OVC033 M03/M09 A2995 RMK AO2 PWINO FZRANO
K2G9 
30nm E 
272115Z AUTO 27016G32KT 1 1/2SM -SN SCT014 BKN027 OVC032 M06/M10 A2978 RMK AO2 VIS 3/4V5
TAF
KLBE 
22nm NE 
271726Z 2718/2818 27019G32KT 6SM -SHSN OVC035 TEMPO 2720/2724 3SM -SHSN OVC025 FM280200 26017G27KT P6SM VCSH OVC030 FM281100 26011KT P6SM BKN035 FM281400 26013G21KT P6SM OVC040
KMGW 
22nm SW 
271726Z 2718/2818 26014G30KT 6SM -SHSN OVC035 TEMPO 2718/2722 3SM -SHSN OVC025 FM280000 26012G21KT P6SM VCSH OVC030 PROB30 2704/2707 4SM -SHSN OVC025 FM280700 25009KT P6SM VCSH OVC030 FM281300 25009G17KT P6SM OVC035
KAGC 
26nm NW 
271726Z 2718/2818 27017G31KT 6SM -SHSN OVC035 TEMPO 2718/2722 3SM -SHSN OVC025 FM280300 27015G24KT P6SM VCSH OVC035 FM281000 26010KT P6SM OVC035 FM281400 26011G19KT P6SM OVC040
NOTAMs
Click for the latest NOTAMs
NOTAMs are issued by the DoD/FAA and will open in a separate window not controlled by AirNav.

 

 
 

FBO, Fuel Providers, and Aircraft Ground Support

  
 Business Name 
 
 Contact 
 
 Services / Description 
 
Fuel Prices
 
Comments
  
Fayette County Airport Authority 724-628-2276
[email]
Airport management, Aviation fuel, Aircraft parking (ramp or tiedown), Flight training, Aircraft rental, Public telephone, Restrooms

More info about Fayette County Airport Authority
Phillips 66
100LL Jet A
FS $5.25 $4.45 
SS $5.15 $4.45 
 Updated 19-Feb-2020
 
   3 read write
FS=Full service
SS=Self service
Update Fuel Prices
 

Aviation Businesses, Services, and Facilities

  
 Business Name 
 
 Contact 
 
 Services / Description 
 
Distance
 
Comments
  
Air Travel Management LLC 724-628-3590
toll-free 1-866-945-5359
[email]
Aircraft charters, Aircraft maintenance
 
FAA-Approved Repair Station   National Business Aviation Association  
 
More info about Air Travel Management LLC
on airport  
   write
 

Would you like to see your business listed on this page?

 If your business provides an interesting product or service to pilots, flight crews, aircraft, or users of the Joseph A Hardy Connellsville Airport, you should consider listing it here.  To start the listing process, click on the button below
 
Add a business
 

Other Pages about Joseph A Hardy Connellsville Airport

Update a link
 
Copyright © AirNav, LLC. All rights reserved. Privacy Policy  Contact